createdAt,value
2019-04-24T00:05:00.000Z,98238
2019-04-24T00:17:00.000Z,98229
2019-04-24T00:24:00.000Z,98204
2019-04-24T00:36:00.000Z,98207
2019-04-24T00:42:00.000Z,98227
2019-04-24T00:49:00.000Z,98209
2019-04-24T00:55:00.000Z,98189
2019-04-24T01:01:00.000Z,98187
2019-04-24T01:07:00.000Z,98210
2019-04-24T01:13:00.000Z,98179
2019-04-24T01:19:00.000Z,98178
2019-04-24T01:26:00.000Z,98191
2019-04-24T01:32:00.000Z,98195
2019-04-24T01:44:00.000Z,98186
2019-04-24T01:50:00.000Z,98173
2019-04-24T01:56:00.000Z,98193
2019-04-24T02:02:00.000Z,98182
2019-04-24T02:08:00.000Z,98196
2019-04-24T02:15:00.000Z,98177
2019-04-24T02:21:00.000Z,98180
2019-04-24T02:26:00.000Z,98179
2019-04-24T02:32:00.000Z,98165
2019-04-24T02:38:00.000Z,98178
2019-04-24T02:45:00.000Z,98168
2019-04-24T02:51:00.000Z,98169
2019-04-24T03:03:00.000Z,98176
2019-04-24T03:16:00.000Z,98182
2019-04-24T03:22:00.000Z,98201
2019-04-24T03:28:00.000Z,98202
2019-04-24T03:35:00.000Z,98192
2019-04-24T03:44:00.000Z,98192
2019-04-24T03:50:00.000Z,98188
2019-04-24T03:57:00.000Z,98196
2019-04-24T04:03:00.000Z,98195
2019-04-24T04:10:00.000Z,98196
2019-04-24T04:16:00.000Z,98203
2019-04-24T04:23:00.000Z,98214
2019-04-24T04:29:00.000Z,98205
2019-04-24T04:36:00.000Z,98201
2019-04-24T04:42:00.000Z,98198
2019-04-24T04:49:00.000Z,98206
2019-04-24T04:56:00.000Z,98208
2019-04-24T05:03:00.000Z,98189
2019-04-24T05:09:00.000Z,98197
2019-04-24T05:15:00.000Z,98198
2019-04-24T05:21:00.000Z,98203
2019-04-24T05:28:00.000Z,98204
2019-04-24T05:34:00.000Z,98208
2019-04-24T05:40:00.000Z,98200
2019-04-24T05:58:00.000Z,98206
2019-04-24T06:11:00.000Z,98210
2019-04-24T06:16:00.000Z,98204
2019-04-24T06:23:00.000Z,98209
2019-04-24T06:29:00.000Z,98198
2019-04-24T06:36:00.000Z,98201
2019-04-24T06:42:00.000Z,98194
2019-04-24T06:48:00.000Z,98201
2019-04-24T06:53:00.000Z,98197
2019-04-24T07:00:00.000Z,98196
2019-04-24T07:12:00.000Z,98189
2019-04-24T07:18:00.000Z,98177
2019-04-24T07:24:00.000Z,98183
2019-04-24T07:31:00.000Z,98206
2019-04-24T07:43:00.000Z,98232
2019-04-24T07:49:00.000Z,98235
2019-04-24T07:55:00.000Z,98247
2019-04-24T08:01:00.000Z,98248
2019-04-24T08:07:00.000Z,98251
2019-04-24T08:14:00.000Z,98248
2019-04-24T08:20:00.000Z,98234
2019-04-24T08:32:00.000Z,98233
2019-04-24T08:38:00.000Z,98223
2019-04-24T08:44:00.000Z,98240
2019-04-24T08:50:00.000Z,98246
2019-04-24T09:02:00.000Z,98248
2019-04-24T09:08:00.000Z,98231
2019-04-24T09:15:00.000Z,98210
2019-04-24T09:21:00.000Z,98239
2019-04-24T09:27:00.000Z,98223
2019-04-24T09:38:00.000Z,98207
2019-04-24T09:44:00.000Z,98226
2019-04-24T09:50:00.000Z,98219
2019-04-24T09:56:00.000Z,98217
2019-04-24T10:08:00.000Z,98184
2019-04-24T10:14:00.000Z,98199
2019-04-24T10:21:00.000Z,98188
2019-04-24T10:27:00.000Z,98196
2019-04-24T10:33:00.000Z,98189
2019-04-24T10:38:00.000Z,98181
2019-04-24T10:45:00.000Z,98191
2019-04-24T10:52:00.000Z,98183
2019-04-24T10:58:00.000Z,98198
2019-04-24T11:04:00.000Z,98185
2019-04-24T11:10:00.000Z,98185
2019-04-24T11:16:00.000Z,98173
2019-04-24T11:23:00.000Z,98176
2019-04-24T11:29:00.000Z,98178
2019-04-24T11:35:00.000Z,98177
2019-04-24T11:41:00.000Z,98185
2019-04-24T11:47:00.000Z,98166
2019-04-24T11:53:00.000Z,98197
2019-04-24T12:00:00.000Z,98187
2019-04-24T12:12:00.000Z,98191
2019-04-24T12:18:00.000Z,98179
2019-04-24T12:24:00.000Z,98168
2019-04-24T12:35:00.000Z,98187
2019-04-24T12:42:00.000Z,98163
2019-04-24T12:54:00.000Z,98152
2019-04-24T13:16:00.000Z,98147
2019-04-24T13:23:00.000Z,98156
2019-04-24T13:28:00.000Z,98149
2019-04-24T13:34:00.000Z,98142
2019-04-24T13:40:00.000Z,98131
2019-04-24T13:47:00.000Z,98149
2019-04-24T13:53:00.000Z,98146
2019-04-24T13:59:00.000Z,98156
2019-04-24T14:12:00.000Z,98154
2019-04-24T14:18:00.000Z,98153
2019-04-24T14:24:00.000Z,98170
2019-04-24T14:30:00.000Z,98171
2019-04-24T14:36:00.000Z,98155
2019-04-24T14:49:00.000Z,98145
2019-04-24T15:01:00.000Z,98126
2019-04-24T15:07:00.000Z,98140
2019-04-24T15:14:00.000Z,98127
2019-04-24T15:20:00.000Z,98134
2019-04-24T15:26:00.000Z,98129
2019-04-24T15:33:00.000Z,98150
2019-04-24T15:39:00.000Z,98140
2019-04-24T15:45:00.000Z,98136
2019-04-24T15:51:00.000Z,98146
2019-04-24T15:56:00.000Z,98139
2019-04-24T16:01:00.000Z,98143
2019-04-24T16:08:00.000Z,98142
2019-04-24T16:13:00.000Z,98143
2019-04-24T16:23:00.000Z,98131
2019-04-24T16:29:00.000Z,98141
2019-04-24T16:35:00.000Z,98139
2019-04-24T16:42:00.000Z,98151
2019-04-24T16:54:00.000Z,98154
2019-04-24T17:06:00.000Z,98157
2019-04-24T17:12:00.000Z,98164
2019-04-24T17:18:00.000Z,98159
2019-04-24T17:36:00.000Z,98148
2019-04-24T17:41:00.000Z,98151
2019-04-24T17:46:00.000Z,98150
2019-04-24T17:59:00.000Z,98166
2019-04-24T18:04:00.000Z,98173
2019-04-24T18:09:00.000Z,98170
2019-04-24T18:14:00.000Z,98166
2019-04-24T18:19:00.000Z,98175
2019-04-24T18:24:00.000Z,98188
2019-04-24T18:29:00.000Z,98185
2019-04-24T18:34:00.000Z,98192
2019-04-24T18:39:00.000Z,98176
2019-04-24T18:44:00.000Z,98166
2019-04-24T18:49:00.000Z,98154
2019-04-24T18:54:00.000Z,98143
2019-04-24T18:59:00.000Z,98131
2019-04-24T19:04:00.000Z,98155
2019-04-24T19:09:00.000Z,98156
2019-04-24T19:14:00.000Z,98168
2019-04-24T19:19:00.000Z,98175
2019-04-24T19:24:00.000Z,98176
2019-04-24T19:29:00.000Z,98172
2019-04-24T19:34:00.000Z,98181
2019-04-24T19:39:00.000Z,98175
2019-04-24T19:44:00.000Z,98174
2019-04-24T19:49:00.000Z,98178
2019-04-24T19:54:00.000Z,98184
2019-04-24T19:59:00.000Z,98176
2019-04-24T20:04:00.000Z,98182
2019-04-24T20:09:00.000Z,98188
2019-04-24T20:14:00.000Z,98173
2019-04-24T20:19:00.000Z,98175
2019-04-24T20:24:00.000Z,98160
2019-04-24T20:29:00.000Z,98152
2019-04-24T20:34:00.000Z,98150
2019-04-24T20:39:00.000Z,98173
2019-04-24T20:44:00.000Z,98162
2019-04-24T20:49:00.000Z,98155
2019-04-24T20:54:00.000Z,98153
2019-04-24T20:59:00.000Z,98149
2019-04-24T21:04:00.000Z,98161
2019-04-24T21:09:00.000Z,98160
2019-04-24T21:14:00.000Z,98157
2019-04-24T21:19:00.000Z,98160
2019-04-24T21:24:00.000Z,98168
2019-04-24T21:29:00.000Z,98175
2019-04-24T21:34:00.000Z,98173
2019-04-24T21:39:00.000Z,98174
2019-04-24T21:44:00.000Z,98183
2019-04-24T21:49:00.000Z,98177
2019-04-24T21:54:00.000Z,98172
2019-04-24T21:59:00.000Z,98176
2019-04-24T22:04:00.000Z,98172
2019-04-24T22:09:00.000Z,98175
2019-04-24T22:14:00.000Z,98170
2019-04-24T22:19:00.000Z,98185
2019-04-24T22:25:00.000Z,98184
2019-04-24T22:30:00.000Z,98181
2019-04-24T22:35:00.000Z,98182
2019-04-24T22:40:00.000Z,98179
2019-04-24T22:45:00.000Z,98194
2019-04-24T22:50:00.000Z,98198
2019-04-24T22:55:00.000Z,98193
2019-04-24T23:00:00.000Z,98193
2019-04-24T23:05:00.000Z,98195
2019-04-24T23:10:00.000Z,98207
2019-04-24T23:15:00.000Z,98198
2019-04-24T23:20:00.000Z,98194
2019-04-24T23:25:00.000Z,98198
2019-04-24T23:30:00.000Z,98197
2019-04-24T23:35:00.000Z,98198
2019-04-24T23:40:00.000Z,98199
2019-04-24T23:45:00.000Z,98208
2019-04-24T23:50:00.000Z,98207
2019-04-24T23:55:00.000Z,98205
